Time;durP1;ratioP1;P1;durP2;ratioP2;P2;SDS_P1;SDS_P2;PMS_P1;PMS_P2;Temp;Humidity;BMP_temperature;BMP_pressure;BME280_temperature;BME280_humidity;BME280_pressure;Samples;Min_cycle;Max_cycle;Signal;HPM_P1;HPM_P2
2021/04/19 00:01:10;;;;;;;3.30;1.80;;;16.20;60.10;;;;;;4996327;28;20481;-38
2021/04/19 00:03:35;;;;;;;4.07;1.52;;;16.30;60.20;;;;;;4967390;28;20138;-38
2021/04/19 00:06:01;;;;;;;3.17;1.92;;;16.20;60.10;;;;;;4976986;28;20026;-38
2021/04/19 00:08:27;;;;;;;3.78;1.85;;;16.40;60.30;;;;;;4976928;28;20033;-38
2021/04/19 00:10:53;;;;;;;6.38;1.45;;;16.30;60.20;;;;;;4976395;28;20027;-38
2021/04/19 00:13:18;;;;;;;3.60;1.33;;;17.10;60.80;;;;;;4976350;28;20023;-38
2021/04/19 00:15:44;;;;;;;3.55;2.08;;;16.20;60.20;;;;;;4976499;28;20070;-38
2021/04/19 00:18:10;;;;;;;3.42;2.00;;;16.10;59.90;;;;;;4976098;28;20469;-38
2021/04/19 00:20:36;;;;;;;2.97;1.80;;;16.20;59.80;;;;;;4976098;28;20026;-37
2021/04/19 00:23:01;;;;;;;2.67;1.73;;;16.20;60.30;;;;;;4976338;28;20030;-37
2021/04/19 00:25:27;;;;;;;4.35;1.65;;;16.20;60.20;;;;;;4976078;28;20063;-37
2021/04/19 00:27:53;;;;;;;2.42;1.70;;;16.20;60.10;;;;;;4976074;28;20019;-37
2021/04/19 00:30:19;;;;;;;2.15;1.67;;;16.20;60.20;;;;;;4976171;28;20042;-37
2021/04/19 00:32:45;;;;;;;3.17;1.70;;;16.10;58.70;;;;;;4976182;28;20057;-38
2021/04/19 00:35:11;;;;;;;2.88;1.65;;;16.30;60.30;;;;;;4976203;28;20478;-38
2021/04/19 00:37:37;;;;;;;3.33;1.52;;;16.20;59.40;;;;;;4976014;28;20030;-39
2021/04/19 00:40:09;;;;;;;2.88;1.52;;;16.40;60.40;;;;;;4976069;28;20468;-39
2021/04/19 00:42:35;;;;;;;4.60;1.75;;;16.10;60.40;;;;;;4975616;28;20027;-38
2021/04/19 00:45:01;;;;;;;2.88;1.58;;;16.30;60.30;;;;;;4975586;28;20030;-39
2021/04/19 00:47:27;;;;;;;3.08;1.70;;;16.20;60.20;;;;;;4976026;28;20041;-38
2021/04/19 00:49:53;;;;;;;2.70;1.70;;;16.00;60.30;;;;;;4975851;28;20023;-39
2021/04/19 00:52:19;;;;;;;3.45;1.55;;;16.10;60.30;;;;;;4975835;28;20027;-39
2021/04/19 00:54:44;;;;;;;4.15;1.70;;;16.10;60.40;;;;;;4975810;28;20146;-39
2021/04/19 00:57:10;;;;;;;1.70;1.60;;;16.60;60.60;;;;;;4975679;28;20485;-39
2021/04/19 00:59:36;;;;;;;4.00;1.65;;;16.10;60.30;;;;;;4975399;28;20027;-39
2021/04/19 01:02:02;;;;;;;3.85;1.65;;;16.70;60.60;;;;;;4975461;28;20046;-39
2021/04/19 01:04:28;;;;;;;2.88;1.27;;;16.40;60.60;;;;;;4974317;28;20051;-38
2021/04/19 01:06:55;;;;;;;3.33;1.33;;;16.30;60.60;;;;;;4975550;28;20025;-39
2021/04/19 01:09:21;;;;;;;2.22;1.40;;;16.10;60.60;;;;;;4975223;28;20018;-38
2021/04/19 01:11:46;;;;;;;2.70;1.27;;;16.10;60.40;;;;;;4975232;28;20117;-38
2021/04/19 01:14:12;;;;;;;3.40;1.50;;;16.20;60.70;;;;;;4975162;28;20046;-38
2021/04/19 01:16:38;;;;;;;2.88;1.25;;;16.10;60.50;;;;;;4975450;28;20101;-39
2021/04/19 01:19:03;;;;;;;2.47;1.50;;;16.10;60.50;;;;;;4974909;28;20489;-38
2021/04/19 01:21:29;;;;;;;3.63;1.67;;;16.10;60.50;;;;;;4975290;28;20027;-39
2021/04/19 01:23:54;;;;;;;2.67;1.42;;;16.10;60.50;;;;;;4975277;28;20097;-38
2021/04/19 01:26:20;;;;;;;3.17;1.38;;;16.10;60.70;;;;;;4975086;28;20031;-39
2021/04/19 01:28:45;;;;;;;3.55;1.27;;;16.00;60.60;;;;;;4974787;28;20113;-39
2021/04/19 01:31:11;;;;;;;2.08;1.30;;;16.00;60.50;;;;;;4974826;28;20026;-38
2021/04/19 01:33:37;;;;;;;3.95;1.75;;;16.10;60.70;;;;;;4974973;28;20027;-38
2021/04/19 01:36:03;;;;;;;3.42;1.60;;;16.10;60.60;;;;;;4975000;28;20389;-38
2021/04/19 01:38:29;;;;;;;2.65;1.40;;;15.90;59.90;;;;;;4974556;28;20039;-38
2021/04/19 01:40:55;;;;;;;3.35;1.70;;;16.50;61.10;;;;;;4974627;28;20533;-39
2021/04/19 01:43:22;;;;;;;2.88;1.55;;;15.90;60.70;;;;;;4974602;28;20106;-38
2021/04/19 01:45:49;;;;;;;2.47;1.67;;;16.00;60.80;;;;;;4974770;28;20121;-39
2021/04/19 01:48:15;;;;;;;4.80;1.63;;;16.00;60.80;;;;;;4974693;28;20389;-38
2021/04/19 01:50:41;;;;;;;2.75;1.30;;;16.00;60.60;;;;;;4974775;28;20015;-38
2021/04/19 01:53:07;;;;;;;1.38;1.13;;;16.00;60.80;;;;;;4974676;28;20038;-38
2021/04/19 01:55:34;;;;;;;1.65;1.38;;;16.30;60.60;;;;;;4974421;28;20435;-38
2021/04/19 01:58:09;;;;;;;2.13;1.60;;;16.00;60.80;;;;;;4974498;28;20062;-38
2021/04/19 02:00:37;;;;;;;3.05;1.42;;;15.90;56.80;;;;;;4974609;28;20099;-38
2021/04/19 02:03:14;;;;;;;2.75;1.38;;;16.00;60.90;;;;;;4974191;28;20041;-39
2021/04/19 02:06:07;;;;;;;1.88;1.40;;;15.90;56.90;;;;;;4974417;28;20397;-38
2021/04/19 02:09:09;;;;;;;3.47;1.65;;;16.00;57.10;;;;;;4974507;28;20027;-38
2021/04/19 02:11:50;;;;;;;1.67;1.25;;;15.90;57.00;;;;;;4974509;28;20019;-38
2021/04/19 02:14:24;;;;;;;2.22;1.40;;;16.00;61.00;;;;;;4974205;28;20026;-38
2021/04/19 02:16:58;;;;;;;3.25;1.63;;;15.90;61.20;;;;;;4974179;28;20027;-38
2021/04/19 02:19:41;;;;;;;3.33;1.55;;;15.90;57.10;;;;;;4973693;28;20045;-38
2021/04/19 02:22:31;;;;;;;1.83;1.20;;;15.00;56.50;;;;;;4973861;28;20482;-37
2021/04/19 02:25:28;;;;;;;2.20;1.60;;;15.80;56.90;;;;;;4965268;28;20540;-39
2021/04/19 02:28:28;;;;;;;2.53;1.42;;;16.50;61.50;;;;;;4972896;28;20453;-39
2021/04/19 02:30:59;;;;;;;3.30;1.50;;;16.50;61.50;;;;;;4973226;28;20045;-38
2021/04/19 02:33:29;;;;;;;2.72;1.70;;;16.70;61.60;;;;;;4974026;28;20022;-39
2021/04/19 02:35:55;;;;;;;;;;;16.30;61.30;;;;;;4974333;28;20030;-39
2021/04/19 02:38:25;;;;;;;1.40;1.30;;;15.90;61.00;;;;;;4973573;28;20311;-39
2021/04/19 02:40:52;;;;;;;2.85;1.88;;;16.60;61.60;;;;;;4973988;28;20018;-38
2021/04/19 02:43:20;;;;;;;1.65;1.50;;;15.90;61.00;;;;;;4973525;28;20050;-38
2021/04/19 02:45:45;;;;;;;2.35;1.58;;;15.80;61.00;;;;;;4973776;28;20031;-38
2021/04/19 02:48:13;;;;;;;3.50;1.80;;;15.90;60.90;;;;;;4973784;28;20081;-38
2021/04/19 02:50:39;;;;;;;2.03;1.60;;;15.90;61.20;;;;;;4973736;28;20027;-38
2021/04/19 02:53:06;;;;;;;4.05;1.75;;;16.40;61.30;;;;;;4973407;28;20504;-39
2021/04/19 02:55:32;;;;;;;1.88;1.60;;;15.90;61.20;;;;;;4973568;28;20029;-38
2021/04/19 02:58:04;;;;;;;2.00;1.80;;;15.90;61.20;;;;;;4973497;28;20026;-39
2021/04/19 03:00:34;;;;;;;2.17;1.42;;;15.90;61.20;;;;;;4973618;28;20029;-39
2021/04/19 03:03:04;;;;;;;2.03;1.67;;;15.90;61.40;;;;;;4973017;28;20551;-39
2021/04/19 03:05:31;;;;;;;2.45;1.73;;;16.60;61.80;;;;;;4973424;28;20058;-38
2021/04/19 03:08:00;;;;;;;3.25;1.90;;;15.90;61.30;;;;;;4973502;28;20033;-38
2021/04/19 03:10:31;;;;;;;2.65;1.73;;;15.80;61.50;;;;;;4973515;28;20026;-38
2021/04/19 03:12:59;;;;;;;3.25;1.55;;;15.60;61.20;;;;;;4973425;28;20118;-40
2021/04/19 03:15:30;;;;;;;2.83;1.73;;;16.50;61.70;;;;;;4973299;28;20029;-39
2021/04/19 03:17:59;;;;;;;4.43;1.80;;;16.80;62.00;;;;;;4973391;28;20038;-39
2021/04/19 03:20:29;;;;;;;2.60;1.55;;;15.80;61.50;;;;;;4972984;28;20093;-38
2021/04/19 03:22:56;;;;;;;2.58;1.67;;;15.70;61.10;;;;;;4973080;28;20027;-38
2021/04/19 03:25:24;;;;;;;2.70;1.88;;;15.70;61.30;;;;;;4973233;28;20106;-38
2021/04/19 03:27:52;;;;;;;2.97;1.80;;;15.80;61.30;;;;;;4974382;28;20421;-38
2021/04/19 03:30:18;;;;;;;2.78;1.80;;;15.70;61.50;;;;;;4977330;28;20034;-38
2021/04/19 03:32:50;;;;;;;3.45;1.85;;;15.70;59.60;;;;;;4976566;28;20030;-37
2021/04/19 03:35:23;;;;;;;2.42;1.80;;;15.80;61.60;;;;;;4976913;28;20073;-39
2021/04/19 03:37:51;;;;;;;1.90;1.60;;;15.80;61.60;;;;;;4976888;28;20035;-39
2021/04/19 03:40:22;;;;;;;2.28;1.70;;;15.50;61.30;;;;;;4977020;28;20027;-37
2021/04/19 03:42:51;;;;;;;2.97;1.90;;;15.80;61.50;;;;;;4977077;28;20053;-37
2021/04/19 03:45:18;;;;;;;1.80;1.38;;;15.70;61.40;;;;;;4977074;28;20049;-38
2021/04/19 03:47:45;;;;;;;4.82;2.00;;;15.70;61.30;;;;;;4976976;28;20049;-39
2021/04/19 03:50:12;;;;;;;2.90;2.08;;;15.60;61.20;;;;;;4976640;28;20103;-38
2021/04/19 03:52:45;;;;;;;3.13;2.13;;;15.50;61.20;;;;;;4976897;28;20109;-39
2021/04/19 03:55:13;;;;;;;2.38;1.80;;;15.70;61.50;;;;;;4976920;28;20409;-38
2021/04/19 03:57:47;;;;;;;2.30;1.65;;;15.60;61.30;;;;;;4976774;28;20161;-38
2021/04/19 04:00:18;;;;;;;2.83;1.98;;;15.70;57.30;;;;;;4976785;28;20035;-39
2021/04/19 04:03:10;;;;;;;2.58;2.10;;;15.30;57.10;;;;;;4976677;28;20049;-38
2021/04/19 04:05:36;;;;;;;3.15;1.90;;;16.10;61.80;;;;;;4973716;28;20046;-38
2021/04/19 04:08:04;;;;;;;2.70;2.17;;;15.70;61.50;;;;;;4976441;28;20033;-38
2021/04/19 04:10:30;;;;;;;3.45;1.90;;;15.60;61.30;;;;;;4976597;28;20022;-39
2021/04/19 04:12:57;;;;;;;3.30;2.20;;;15.60;61.50;;;;;;4976223;28;20046;-39
2021/04/19 04:15:23;;;;;;;2.50;2.05;;;15.70;61.70;;;;;;4976380;28;20027;-38
2021/04/19 04:17:48;;;;;;;3.83;2.17;;;15.70;61.60;;;;;;4976407;28;20409;-38
2021/04/19 04:20:14;;;;;;;4.97;2.67;;;15.60;61.70;;;;;;4976388;28;20019;-38
2021/04/19 04:22:40;;;;;;;2.72;2.10;;;15.60;61.20;;;;;;4976266;28;20023;-38
2021/04/19 04:25:07;;;;;;;4.72;2.08;;;15.50;61.50;;;;;;4976300;28;20062;-38
2021/04/19 04:27:32;;;;;;;2.78;2.00;;;15.50;60.10;;;;;;4975939;28;20035;-38
2021/04/19 04:29:58;;;;;;;2.53;1.98;;;15.90;61.90;;;;;;4976236;28;20393;-38
2021/04/19 04:32:24;;;;;;;3.28;2.20;;;15.60;61.70;;;;;;4975981;28;20026;-38
2021/04/19 04:34:49;;;;;;;2.85;2.15;;;16.20;61.90;;;;;;4976122;28;20015;-38
2021/04/19 04:37:15;;;;;;;2.80;1.70;;;15.50;61.50;;;;;;4975799;28;20490;-38
2021/04/19 04:39:40;;;;;;;3.17;1.95;;;15.60;61.60;;;;;;4974769;28;20058;-38
2021/04/19 04:42:12;;;;;;;3.17;1.98;;;15.60;61.60;;;;;;4976053;28;20050;-38
2021/04/19 04:44:41;;;;;;;2.88;2.10;;;15.80;61.80;;;;;;4976032;28;20053;-38
2021/04/19 04:47:31;;;;;;;2.75;2.03;;;16.40;62.20;;;;;;4975579;28;20027;-38
2021/04/19 04:50:14;;;;;;;3.63;2.35;;;15.40;57.80;;;;;;4975608;28;20023;-38
2021/04/19 04:53:06;;;;;;;3.05;1.88;;;15.50;57.80;;;;;;4975907;28;20026;-38
2021/04/19 04:55:33;;;;;;;2.75;1.75;;;15.50;57.70;;;;;;4975609;28;20054;-38
2021/04/19 04:58:00;;;;;;;2.65;2.03;;;15.80;61.90;;;;;;4958049;28;20033;-39
2021/04/19 05:00:27;;;;;;;3.47;2.05;;;15.90;62.30;;;;;;4975623;28;20031;-38
2021/04/19 05:02:54;;;;;;;4.45;1.88;;;15.50;62.40;;;;;;4975493;28;20027;-38
2021/04/19 05:05:20;;;;;;;2.67;1.70;;;15.50;62.50;;;;;;4975570;28;20039;-38
2021/04/19 05:07:46;;;;;;;2.95;1.90;;;15.70;62.40;;;;;;4975681;28;20027;-37
2021/04/19 05:10:13;;;;;;;2.92;2.03;;;16.10;62.80;;;;;;4975564;28;20011;-37
2021/04/19 05:12:40;;;;;;;3.25;2.15;;;15.40;59.90;;;;;;4975471;28;20489;-37
2021/04/19 05:15:09;;;;;;;2.60;2.00;;;16.00;62.90;;;;;;4975537;28;20015;-38
2021/04/19 05:17:36;;;;;;;6.07;2.55;;;15.40;62.10;;;;;;4975465;28;20535;-37
2021/04/19 05:20:02;;;;;;;3.65;2.33;;;15.50;62.60;;;;;;4975062;28;20528;-37
2021/04/19 05:22:28;;;;;;;4.13;2.42;;;15.50;62.40;;;;;;4975012;28;20027;-37
2021/04/19 05:24:53;;;;;;;3.17;2.20;;;15.50;62.50;;;;;;4975216;28;20027;-38
2021/04/19 05:27:19;;;;;;;3.55;2.08;;;15.50;62.40;;;;;;4975183;28;20027;-37
2021/04/19 05:29:46;;;;;;;3.50;2.70;;;15.50;62.20;;;;;;4974902;28;20026;-37
2021/04/19 05:32:13;;;;;;;5.20;2.55;;;15.50;62.40;;;;;;4975150;28;20031;-37
2021/04/19 05:34:39;;;;;;;2.63;2.28;;;15.50;62.20;;;;;;4975091;28;20077;-37
2021/04/19 05:37:06;;;;;;;4.07;2.58;;;15.50;62.30;;;;;;4975082;28;20027;-37
2021/04/19 05:39:33;;;;;;;4.32;2.30;;;15.30;62.00;;;;;;4957489;28;20043;-37
2021/04/19 05:41:59;;;;;;;4.45;2.53;;;15.50;62.20;;;;;;4975039;28;20093;-37
2021/04/19 05:44:25;;;;;;;4.25;2.58;;;15.50;62.20;;;;;;4974923;28;20093;-37
2021/04/19 05:46:52;;;;;;;3.58;2.55;;;15.50;62.00;;;;;;4974930;28;20469;-37
2021/04/19 05:49:18;;;;;;;5.20;2.38;;;15.50;62.00;;;;;;4974800;28;20053;-37
2021/04/19 05:51:45;;;;;;;3.88;2.65;;;15.30;62.00;;;;;;4974155;28;20030;-38
2021/04/19 05:54:12;;;;;;;3.28;2.50;;;15.50;62.30;;;;;;4974379;28;20026;-38
2021/04/19 05:57:04;;;;;;;5.13;2.97;;;15.60;62.20;;;;;;4974788;28;20049;-39
2021/04/19 05:59:51;;;;;;;4.18;2.55;;;15.40;58.40;;;;;;4974379;28;20031;-38
2021/04/19 06:02:56;;;;;;;6.55;3.40;;;15.40;58.30;;;;;;4974403;28;20058;-39
2021/04/19 06:05:28;;;;;;;8.30;4.00;;;15.40;58.50;;;;;;4951789;28;20053;-38
2021/04/19 06:08:16;;;;;;;7.75;3.70;;;15.50;62.60;;;;;;4974669;28;20030;-38
2021/04/19 06:10:51;;;;;;;6.35;4.22;;;15.50;62.90;;;;;;4974582;28;20085;-39
2021/04/19 06:13:20;;;;;;;6.10;3.03;;;15.40;62.60;;;;;;4974523;28;20035;-38
2021/04/19 06:15:51;;;;;;;9.07;4.57;;;15.50;62.70;;;;;;4974534;28;20034;-39
2021/04/19 06:18:21;;;;;;;11.77;5.40;;;15.40;58.40;;;;;;4974152;28;20035;-38
2021/04/19 06:21:06;;;;;;;7.00;4.68;;;15.40;62.50;;;;;;4973926;28;20037;-38
2021/04/19 06:23:33;;;;;;;9.63;4.72;;;16.00;62.90;;;;;;4973768;28;20027;-36
2021/04/19 06:25:59;;;;;;;10.63;5.28;;;15.50;62.20;;;;;;4973610;28;20485;-38
2021/04/19 06:28:25;;;;;;;6.18;2.92;;;15.40;62.20;;;;;;4974044;28;20041;-39
2021/04/19 06:30:52;;;;;;;9.48;3.88;;;15.60;62.50;;;;;;4974027;28;20026;-42
2021/04/19 06:33:20;;;;;;;10.10;3.75;;;16.00;63.40;;;;;;4974096;28;20440;-39
2021/04/19 06:35:47;;;;;;;10.30;3.67;;;15.60;63.40;;;;;;4973613;28;20069;-39
2021/04/19 06:38:13;;;;;;;5.65;2.85;;;15.60;63.60;;;;;;4973820;28;20070;-39
2021/04/19 06:40:41;;;;;;;7.15;3.83;;;15.70;63.80;;;;;;4973658;28;20045;-39
2021/04/19 06:43:07;;;;;;;9.02;3.97;;;15.60;63.50;;;;;;4973521;28;20498;-39
2021/04/19 06:45:35;;;;;;;8.25;3.72;;;15.60;63.30;;;;;;4973527;28;20490;-39
2021/04/19 06:48:08;;;;;;;7.65;4.18;;;15.60;63.60;;;;;;4973706;28;20406;-39
2021/04/19 06:50:35;;;;;;;7.35;3.80;;;15.50;61.90;;;;;;4973705;28;20031;-39
2021/04/19 06:53:00;;;;;;;9.40;4.15;;;15.70;63.80;;;;;;4973332;28;20490;-39
2021/04/19 06:55:26;;;;;;;8.57;3.90;;;15.60;63.60;;;;;;4973629;28;20030;-39
2021/04/19 06:58:02;;;;;;;10.68;3.38;;;15.70;63.70;;;;;;4972982;28;20039;-38
2021/04/19 07:00:30;;;;;;;8.35;3.58;;;15.50;63.60;;;;;;4973560;28;20038;-38
2021/04/19 07:02:57;;;;;;;8.05;3.88;;;15.50;63.80;;;;;;4972252;28;20470;-39
2021/04/19 07:05:30;;;;;;;8.52;3.25;;;15.60;63.60;;;;;;4973362;28;20048;-37
2021/04/19 07:08:39;;;;;;;6.30;3.05;;;15.60;63.70;;;;;;4973129;28;20035;-38
2021/04/19 07:11:07;;;;;;;8.00;3.83;;;15.60;59.60;;;;;;4953274;28;20039;-38
2021/04/19 07:13:37;;;;;;;7.53;3.58;;;15.60;63.80;;;;;;4973155;28;20567;-38
2021/04/19 07:16:03;;;;;;;6.53;3.22;;;15.70;63.80;;;;;;4973420;28;20018;-39
2021/04/19 07:18:29;;;;;;;6.10;3.08;;;15.50;62.80;;;;;;4972923;28;20552;-39
2021/04/19 07:20:54;;;;;;;8.15;3.40;;;16.10;63.90;;;;;;4973047;28;20054;-38
2021/04/19 07:23:20;;;;;;;7.10;3.47;;;15.60;63.60;;;;;;4973113;28;20066;-39
2021/04/19 07:25:46;;;;;;;8.68;3.58;;;15.70;63.60;;;;;;4972963;28;20045;-38
2021/04/19 07:28:14;;;;;;;7.05;3.42;;;15.30;63.40;;;;;;4972954;28;20030;-38
2021/04/19 07:30:40;;;;;;;7.45;3.17;;;16.30;64.00;;;;;;4973159;28;20046;-37
2021/04/19 07:33:22;;;;;;;8.57;3.55;;;15.70;63.70;;;;;;4972884;28;20026;-38
2021/04/19 07:35:48;;;;;;;6.03;2.90;;;15.60;63.60;;;;;;4973192;28;20023;-37
2021/04/19 07:38:13;;;;;;;5.55;3.33;;;15.60;63.50;;;;;;4973084;28;20045;-40
2021/04/19 07:40:41;;;;;;;9.68;3.25;;;15.80;63.50;;;;;;4972802;28;20441;-40
2021/04/19 07:43:20;;;;;;;6.20;3.10;;;15.60;63.70;;;;;;4973204;28;20023;-38
2021/04/19 07:46:08;;;;;;;5.57;3.38;;;15.50;59.80;;;;;;4972826;28;20027;-38
2021/04/19 07:48:40;;;;;;;7.18;3.05;;;16.00;64.20;;;;;;4973254;28;20023;-38
2021/04/19 07:51:31;;;;;;;4.90;3.08;;;15.60;60.10;;;;;;4973268;28;20023;-37
2021/04/19 07:54:16;;;;;;;8.90;3.05;;;15.60;60.20;;;;;;4973066;28;20022;-38
2021/04/19 07:56:52;;;;;;;5.75;2.75;;;15.70;64.40;;;;;;4973141;28;20046;-39
2021/04/19 07:59:21;;;;;;;9.27;2.83;;;15.60;59.90;;;;;;4972942;28;20433;-39
2021/04/19 08:02:14;;;;;;;12.23;3.30;;;15.60;64.40;;;;;;4973020;28;20065;-39
2021/04/19 08:04:51;;;;;;;8.50;3.08;;;15.70;60.00;;;;;;4972820;28;20413;-39
2021/04/19 08:07:27;;;;;;;6.28;2.97;;;15.70;63.90;;;;;;4972712;28;20027;-39
2021/04/19 08:10:07;;;;;;;9.10;2.83;;;15.70;64.10;;;;;;4972804;28;20034;-39
2021/04/19 08:12:41;;;;;;;6.30;2.50;;;15.60;62.50;;;;;;4972929;28;20022;-37
2021/04/19 08:15:09;;;;;;;4.78;2.70;;;15.60;59.70;;;;;;4975582;28;20030;-39
2021/04/19 08:17:35;;;;;;;4.15;2.17;;;15.60;64.30;;;;;;4976189;28;20026;-39
2021/04/19 08:20:14;;;;;;;4.50;2.38;;;15.90;63.80;;;;;;4976524;28;20069;-39
2021/04/19 08:22:44;;;;;;;9.13;3.40;;;15.50;63.80;;;;;;4976481;28;20085;-39
2021/04/19 08:25:16;;;;;;;5.55;2.95;;;15.70;64.40;;;;;;4976475;28;20038;-39
2021/04/19 08:27:44;;;;;;;7.88;3.25;;;15.70;64.20;;;;;;4976427;28;20031;-39
2021/04/19 08:30:15;;;;;;;6.65;2.97;;;16.40;64.80;;;;;;4976125;28;20047;-39
2021/04/19 08:32:45;;;;;;;6.00;3.63;;;15.60;63.20;;;;;;4976359;28;20030;-39
2021/04/19 08:35:12;;;;;;;3.33;2.20;;;15.80;64.20;;;;;;4976002;28;20121;-39
2021/04/19 08:37:39;;;;;;;4.55;2.10;;;15.60;63.50;;;;;;4975994;28;20070;-39
2021/04/19 08:40:05;;;;;;;5.45;2.30;;;15.80;63.90;;;;;;4976116;28;20042;-39
2021/04/19 08:42:33;;;;;;;4.18;2.38;;;15.60;62.40;;;;;;4975735;28;20102;-38
2021/04/19 08:45:01;;;;;;;5.18;2.80;;;15.70;63.90;;;;;;4975692;28;20038;-39
2021/04/19 08:47:28;;;;;;;7.32;3.00;;;15.70;64.70;;;;;;4976000;28;20027;-39
2021/04/19 08:49:58;;;;;;;5.07;3.05;;;15.70;64.00;;;;;;4975918;28;20050;-38
2021/04/19 08:52:24;;;;;;;;;;;15.80;64.50;;;;;;4976238;28;20023;-39
2021/04/19 08:54:50;;;;;;;5.38;2.85;;;15.70;64.10;;;;;;4975916;28;20258;-39
2021/04/19 08:57:16;;;;;;;5.93;3.20;;;15.50;64.10;;;;;;4975493;28;20023;-38
2021/04/19 08:59:45;;;;;;;4.05;2.45;;;15.80;64.30;;;;;;4975749;28;20130;-39
2021/04/19 09:02:16;;;;;;;4.32;2.92;;;15.70;64.40;;;;;;4975571;28;20023;-39
2021/04/19 09:05:02;;;;;;;7.20;3.33;;;15.70;65.10;;;;;;4975156;28;20047;-38
2021/04/19 09:07:32;;;;;;;7.07;3.28;;;15.80;65.50;;;;;;4975845;28;20035;-39
2021/04/19 09:09:58;;;;;;;5.72;2.90;;;16.00;66.50;;;;;;4975232;28;20486;-38
2021/04/19 09:12:27;;;;;;;12.43;4.40;;;15.70;66.60;;;;;;4975573;28;20022;-38
2021/04/19 09:15:15;;;;;;;6.15;3.60;;;15.60;67.50;;;;;;4975266;28;20030;-39
2021/04/19 09:17:42;;;;;;;17.20;4.22;;;15.70;64.10;;;;;;4974975;28;20029;-38
2021/04/19 09:20:13;;;;;;;8.45;3.60;;;16.30;69.30;;;;;;4975325;28;20031;-38
2021/04/19 09:22:39;;;;;;;12.80;4.13;;;15.70;65.40;;;;;;4975267;28;20019;-38
2021/04/19 09:25:10;;;;;;;5.88;3.10;;;15.70;70.30;;;;;;4974640;28;20023;-38
2021/04/19 09:27:42;;;;;;;;;;;15.60;70.10;;;;;;4975183;28;20023;-38
2021/04/19 09:30:31;;;;;;;6.22;2.95;;;15.60;67.40;;;;;;4974738;28;19914;-38
2021/04/19 09:33:03;;;;;;;8.05;3.38;;;15.60;73.40;;;;;;4974850;28;20034;-38
2021/04/19 09:35:42;;;;;;;6.03;3.38;;;15.80;73.70;;;;;;4975002;28;20051;-38
2021/04/19 09:38:13;;;;;;;5.50;3.35;;;16.20;74.00;;;;;;4974850;28;20035;-39
2021/04/19 09:40:56;;;;;;;4.40;3.00;;;15.60;69.80;;;;;;4974655;28;20494;-39
2021/04/19 09:43:41;;;;;;;3.45;2.55;;;15.60;69.80;;;;;;4974930;28;20077;-39
2021/04/19 09:46:08;;;;;;;3.90;2.72;;;15.80;74.20;;;;;;4974653;28;20041;-38
2021/04/19 09:48:35;;;;;;;5.60;2.85;;;15.70;74.20;;;;;;4974471;28;20517;-38
2021/04/19 09:51:26;;;;;;;5.68;2.92;;;15.70;73.90;;;;;;4974502;28;20058;-38
2021/04/19 09:54:03;;;;;;;5.00;2.95;;;15.70;70.00;;;;;;4974718;28;20111;-39
2021/04/19 09:56:35;;;;;;;4.93;2.67;;;15.70;74.70;;;;;;4974636;28;20034;-39
2021/04/19 09:59:01;;;;;;;5.78;3.53;;;15.80;74.30;;;;;;4974471;28;20030;-38
2021/04/19 10:01:29;;;;;;;6.38;3.47;;;16.00;76.10;;;;;;4974542;28;20042;-38
2021/04/19 10:03:56;;;;;;;5.05;3.33;;;15.90;78.40;;;;;;4974250;28;20533;-38
2021/04/19 10:06:28;;;;;;;5.72;3.13;;;16.00;79.30;;;;;;4974486;28;20358;-38
2021/04/19 10:08:56;;;;;;;5.40;3.58;;;16.00;79.00;;;;;;4974380;28;20381;-38
2021/04/19 10:11:27;;;;;;;4.88;3.15;;;15.90;79.20;;;;;;4974180;28;20109;-38
2021/04/19 10:13:55;;;;;;;6.75;3.33;;;16.10;79.90;;;;;;4974356;28;20030;-38
2021/04/19 10:16:20;;;;;;;4.35;3.25;;;16.00;80.00;;;;;;4974347;28;20031;-38
2021/04/19 10:18:51;;;;;;;4.65;3.40;;;16.00;80.70;;;;;;4974235;28;20118;-38
2021/04/19 10:21:28;;;;;;;4.63;3.30;;;16.00;81.40;;;;;;4974249;28;20106;-38
2021/04/19 10:23:56;;;;;;;6.57;3.53;;;15.90;78.00;;;;;;4974211;28;20097;-38
2021/04/19 10:26:33;;;;;;;3.88;2.92;;;15.80;82.50;;;;;;4973711;28;20422;-39
2021/04/19 10:29:07;;;;;;;4.55;2.80;;;16.40;83.90;;;;;;4973582;28;20035;-38
2021/04/19 10:31:32;;;;;;;3.85;2.88;;;15.80;84.80;;;;;;4974074;28;20126;-38
2021/04/19 10:33:58;;;;;;;4.75;2.80;;;16.40;85.60;;;;;;4974038;28;20478;-38
2021/04/19 10:36:26;;;;;;;3.50;2.60;;;16.00;86.50;;;;;;4955797;28;20019;-38
2021/04/19 10:38:54;;;;;;;4.63;2.50;;;15.90;90.50;;;;;;4973529;28;20512;-38
2021/04/19 10:41:34;;;;;;;3.13;2.55;;;16.00;90.50;;;;;;4973932;28;20030;-37
2021/04/19 10:44:00;;;;;;;3.47;2.42;;;16.20;91.30;;;;;;4973816;28;20027;-38
2021/04/19 10:46:29;;;;;;;3.83;2.30;;;16.30;91.20;;;;;;4973814;28;20087;-39
2021/04/19 10:48:57;;;;;;;3.03;2.30;;;16.30;91.10;;;;;;4973562;28;20031;-37
2021/04/19 10:51:28;;;;;;;3.20;2.38;;;16.80;91.20;;;;;;4973453;28;20019;-39
2021/04/19 10:53:56;;;;;;;4.22;2.47;;;16.40;91.50;;;;;;4973751;28;20031;-39
2021/04/19 10:56:24;;;;;;;2.25;2.05;;;;;;;;;;4973712;28;20049;-39
2021/04/19 10:58:56;;;;;;;2.42;2.22;;;16.50;92.90;;;;;;4973486;28;20045;-39
2021/04/19 11:01:30;;;;;;;2.95;2.33;;;16.30;92.60;;;;;;4973496;28;20019;-39
2021/04/19 11:03:58;;;;;;;3.25;2.08;;;16.10;75.90;;;;;;4973319;28;20134;-38
2021/04/19 11:06:24;;;;;;;4.13;2.90;;;16.10;76.00;;;;;;4973646;28;20031;-39
2021/04/19 11:08:59;;;;;;;2.85;2.05;;;16.30;76.10;;;;;;4973643;28;20029;-38
2021/04/19 11:11:31;;;;;;;2.08;1.90;;;16.40;75.90;;;;;;4973598;28;20218;-38
2021/04/19 11:14:11;;;;;;;2.38;1.98;;;16.30;75.90;;;;;;4973304;28;20130;-38
2021/04/19 11:16:58;;;;;;;2.58;2.17;;;16.40;75.90;;;;;;4973340;28;20047;-38
2021/04/19 11:19:43;;;;;;;1.90;1.75;;;16.30;76.30;;;;;;4973197;28;20050;-38
2021/04/19 11:22:23;;;;;;;2.17;1.98;;;16.30;77.30;;;;;;4973477;28;20022;-38
2021/04/19 11:24:50;;;;;;;3.15;2.17;;;16.40;83.60;;;;;;4972918;28;20023;-38
2021/04/19 11:27:21;;;;;;;3.40;2.05;;;16.70;86.90;;;;;;4972953;28;20541;-39
2021/04/19 11:29:47;;;;;;;2.40;2.20;;;16.90;88.30;;;;;;4973287;28;20484;-38
2021/04/19 11:32:33;;;;;;;2.22;1.88;;;17.00;87.80;;;;;;4973263;28;20109;-39
2021/04/19 11:35:04;;;;;;;2.28;2.08;;;16.50;88.80;;;;;;4973167;28;20130;-39
2021/04/19 11:37:36;;;;;;;;;;;16.40;87.10;;;;;;4973581;28;20374;-38
2021/04/19 11:40:05;;;;;;;2.55;1.65;;;16.40;91.60;;;;;;4973260;28;19957;-39
2021/04/19 11:42:33;;;;;;;1.92;1.73;;;16.40;95.80;;;;;;4972860;28;20038;-38
2021/04/19 11:45:00;;;;;;;2.58;2.03;;;16.40;97.30;;;;;;4973249;28;20022;-39
2021/04/19 11:47:26;;;;;;;3.00;1.70;;;16.40;97.30;;;;;;4973101;28;20038;-38
2021/04/19 11:49:52;;;;;;;2.97;1.67;;;16.50;96.80;;;;;;4975782;28;20378;-38
2021/04/19 11:52:19;;;;;;;2.25;1.58;;;16.90;96.60;;;;;;4976879;28;20023;-38
2021/04/19 11:54:45;;;;;;;1.92;1.77;;;17.20;96.40;;;;;;4976967;28;20525;-39
2021/04/19 11:57:11;;;;;;;2.00;1.90;;;16.50;96.30;;;;;;4976632;28;20133;-38
2021/04/19 11:59:37;;;;;;;1.60;1.50;;;16.40;96.00;;;;;;4976248;28;20217;-38
2021/04/19 12:02:04;;;;;;;2.35;1.80;;;16.30;75.10;;;;;;4976832;28;20028;-39
2021/04/19 12:04:29;;;;;;;1.83;1.73;;;16.30;75.00;;;;;;4976374;28;20113;-38
2021/04/19 12:06:56;;;;;;;1.67;1.58;;;16.30;75.00;;;;;;4976666;28;20055;-38
2021/04/19 12:09:22;;;;;;;2.08;1.98;;;16.30;75.90;;;;;;4976695;28;20030;-39
2021/04/19 12:11:47;;;;;;;2.10;1.90;;;16.50;97.40;;;;;;4976635;28;20373;-38
2021/04/19 12:14:13;;;;;;;1.92;1.83;;;16.80;95.70;;;;;;4976496;28;20037;-38
2021/04/19 12:16:39;;;;;;;1.60;1.50;;;16.60;96.70;;;;;;4976598;28;20074;-38
2021/04/19 12:19:04;;;;;;;2.83;1.70;;;16.60;95.60;;;;;;4976100;28;20437;-39
2021/04/19 12:21:30;;;;;;;1.85;1.75;;;16.60;95.90;;;;;;4976514;28;20039;-38
2021/04/19 12:23:55;;;;;;;1.83;1.73;;;16.60;96.60;;;;;;4976443;28;20023;-38
2021/04/19 12:26:21;;;;;;;1.48;1.38;;;16.80;96.90;;;;;;4958784;28;20529;-38
2021/04/19 12:28:47;;;;;;;3.10;2.10;;;16.80;97.10;;;;;;4976157;28;20063;-38
2021/04/19 12:31:13;;;;;;;1.80;1.70;;;16.90;97.10;;;;;;4976087;28;20106;-39
2021/04/19 12:33:39;;;;;;;2.13;1.90;;;16.80;97.20;;;;;;4976307;28;20114;-38
2021/04/19 12:36:06;;;;;;;1.95;1.73;;;17.00;97.20;;;;;;4976060;28;20030;-38
2021/04/19 12:38:31;;;;;;;1.80;1.70;;;16.90;97.70;;;;;;4976079;28;20027;-38
2021/04/19 12:40:57;;;;;;;1.58;1.48;;;17.10;98.40;;;;;;4976129;28;20019;-39
2021/04/19 12:43:24;;;;;;;1.42;1.30;;;;;;;;;;4976055;28;20023;-38
2021/04/19 12:45:54;;;;;;;1.63;1.52;;;;;;;;;;4976044;28;20027;-38
2021/04/19 12:48:19;;;;;;;1.60;1.50;;;16.90;70.70;;;;;;4975705;28;20023;-39
2021/04/19 12:50:45;;;;;;;3.05;1.40;;;17.20;90.80;;;;;;4975720;28;20030;-39
2021/04/19 12:53:11;;;;;;;2.70;1.33;;;17.50;71.40;;;;;;4975602;28;20097;-39
2021/04/19 12:55:41;;;;;;;1.65;1.50;;;17.20;71.10;;;;;;4975653;28;20070;-39
2021/04/19 12:58:07;;;;;;;1.70;1.50;;;17.30;70.80;;;;;;4975826;28;20392;-39
2021/04/19 13:00:32;;;;;;;1.40;1.30;;;17.40;70.70;;;;;;4974608;28;20031;-38
2021/04/19 13:02:58;;;;;;;1.40;1.30;;;17.40;70.40;;;;;;4975559;28;20022;-44